Oswestry, United Kingdom
Current Conditions -  °F | °C
As of 9:50 AM on Tuesday 21 Oct 2014 (Local Time) from EGOS Reporting Station
Few Clouds Few Clouds  
Wind Chill: 50°   Ceiling: Unl
Heat Index: 50°   Visibility: 6mi
Dew Point: 41°   Wind: 20mph
Humidity: 71%   Direction: 270°W
Pressure: 29.59"   Gusts: NA
Location:  52.82°N, 3.29°W
Report Text: EGOS 210850Z 27017KT 9999 FEW020TCU 10/05 Q1002 BLU NOSIG
Loading
Personal Weather Stations






























Interactive Weather Map
Tropical Storm Tracking
New forecast layout! Learn more

10-Day Weather Forecast

Advertisements
Track Severe Weather on mobile